Terminal Aerodrome Forecast
Issued by NWS

Home | Current Version | Previous Version | Text Only | Print | Product List | Glossary On
Versions: 1 2 3 4 5 6 7 8 9 10 11 12 13 14 15 16 17 18 19 20 21 22 23 24 25 26
000
FTUS43 KDLH 260423 AAB
TAFHYR
TAF AMD
KHYR 260423Z 2604/2624 01004KT P6SM SCT005
      TEMPO 2604/2606 OVC003
     FM260600 03003KT 5SM BR BKN008
     FM260800 05004KT 2SM BR BKN005
     FM261600 20006KT P6SM SCT080=

USA.gov is the U.S. government's official web portal to all federal, state and local government web resources and services.